Terminal Aerodrome Forecast
Issued by NWS Wakefield, VA

Home | Current Version | Previous Version | Text Only | Print | Product List | Glossary On
Versions: 1 2 3 4 5 6 7 8 9 10 11 12
000
FTUS41 KAKQ 052333
TAFSBY
TAF
KSBY 052333Z 0600/0624 21010KT P6SM SCT120 BKN250
     FM060200 20007KT P6SM VCSH BKN070 OVC120
      TEMPO 0602/0605 5SM -SHRA OVC050
     FM060500 22003KT P6SM BKN050 OVC100
     FM061000 22003KT 3SM BR SCT060 SCT100
     FM061400 21007KT 6SM HZ SCT060 BKN250=

USA.gov is the U.S. government's official web portal to all federal, state and local government web resources and services.